KAGC/AGC METAR and TAF weather

Enter ICAO airport designator
Station Type Date Time Source
KAGC METAR 2021/03/02 15:53 UTC NOAA

KAGC 021553Z VRB03KT 10SM CLR M03/M13 A3029 RMK AO2 SLP278 T10331128


Station Type Date Time Source
KAGC Decoded METAR 2021/03/02 15:53 UTC NOAA

PITTSBURGH ALLEGHENY CTY., PA, United States (KAGC) 40-21N 079-55W 389M
Mar 02, 2021 - 10:53 AM EST / 2021.03.02 1553 UTC
Wind: Variable at 3 MPH (3 KT):0
Visibility: 10 mile(s):0
Sky conditions: clear
Temperature: 26.1 F (-3.3 C)
Dew Point: 9.0 F (-12.8 C)
Relative Humidity: 47%
Pressure (altimeter): 30.29 in. Hg (1025 hPa)
ob: KAGC 021553Z VRB03KT 10SM CLR M03/M13 A3029 RMK AO2 SLP278 T10331128
cycle: 16

Station Type Date Time Source
KAGC TAF 2021/03/02 12:24 UTC NOAA

TAF KAGC 021122Z 0212/0312 32010KT P6SM SKC
FM021800 24008KT P6SM SKC

Example: see airport list